createdAt,value
2023-02-15T00:08:42.319Z,23.61
2023-02-15T00:18:47.487Z,23.69
2023-02-15T00:28:53.425Z,23.57
2023-02-15T00:38:58.746Z,23.60
2023-02-15T00:49:04.169Z,23.52
2023-02-15T00:59:09.888Z,23.53
2023-02-15T01:09:15.433Z,23.59
2023-02-15T01:19:21.731Z,23.60
2023-02-15T01:29:27.207Z,23.74
2023-02-15T01:39:32.761Z,23.69
2023-02-15T01:49:38.827Z,23.61
2023-02-15T01:59:44.018Z,23.59
2023-02-15T02:09:49.600Z,23.52
2023-02-15T02:19:54.856Z,23.50
2023-02-15T02:31:20.442Z,23.47
2023-02-15T02:41:25.217Z,23.47
2023-02-15T02:51:31.688Z,23.43
2023-02-15T03:02:57.115Z,23.42
2023-02-15T03:13:02.156Z,23.43
2023-02-15T03:23:07.827Z,23.35
2023-02-15T03:33:13.706Z,23.38
2023-02-15T03:43:19.102Z,23.37
2023-02-15T03:53:24.694Z,23.33
2023-02-15T04:03:30.282Z,23.36
2023-02-15T04:13:36.097Z,23.33
2023-02-15T04:23:41.461Z,23.31
2023-02-15T04:33:46.996Z,23.29
2023-02-15T04:43:52.582Z,23.29
2023-02-15T04:53:58.170Z,23.29
2023-02-15T05:04:03.918Z,23.26
2023-02-15T05:14:09.517Z,23.25
2023-02-15T05:24:15.238Z,23.23
2023-02-15T05:34:20.494Z,23.20
2023-02-15T05:44:26.123Z,23.23
2023-02-15T05:54:32.041Z,23.20
2023-02-15T06:04:37.508Z,23.19
2023-02-15T06:14:44.909Z,23.21
2023-02-15T06:24:50.403Z,23.16
2023-02-15T06:34:56.130Z,23.17
2023-02-15T06:45:02.315Z,23.15
2023-02-15T06:55:07.677Z,23.16
2023-02-15T07:05:13.196Z,23.16
2023-02-15T07:15:18.757Z,23.14
2023-02-15T07:25:24.355Z,23.10
2023-02-15T07:35:29.837Z,23.13
2023-02-15T07:45:35.094Z,23.10
2023-02-15T07:55:39.993Z,23.14
2023-02-15T08:05:45.235Z,23.15
2023-02-15T08:15:51.091Z,23.14
2023-02-15T08:25:56.571Z,22.97
2023-02-15T08:36:01.411Z,22.74
2023-02-15T08:46:06.569Z,22.65
2023-02-15T08:56:11.960Z,22.87
2023-02-15T09:06:17.703Z,23.06
2023-02-15T09:16:23.177Z,23.13
2023-02-15T09:26:28.563Z,23.24
2023-02-15T09:36:33.721Z,23.31
2023-02-15T09:46:39.452Z,23.33
2023-02-15T09:56:44.604Z,23.26
2023-02-15T10:06:50.106Z,23.33
2023-02-15T10:16:55.939Z,23.31
2023-02-15T10:27:01.275Z,23.30
2023-02-15T10:37:06.631Z,23.33
2023-02-15T10:47:12.911Z,23.38
2023-02-15T10:57:18.244Z,23.38
2023-02-15T11:07:23.455Z,23.49
2023-02-15T11:17:28.997Z,23.58
2023-02-15T11:27:34.392Z,23.71
2023-02-15T11:37:39.502Z,23.65
2023-02-15T11:47:44.779Z,23.57
2023-02-15T11:57:50.224Z,23.45
2023-02-15T12:07:55.681Z,23.44
2023-02-15T12:18:00.838Z,23.39
2023-02-15T12:28:06.173Z,23.39
2023-02-15T12:38:11.526Z,23.40
2023-02-15T12:48:16.603Z,23.39
2023-02-15T12:58:21.770Z,23.38
2023-02-15T13:08:27.429Z,23.29
2023-02-15T13:18:32.530Z,23.24
2023-02-15T13:28:37.515Z,23.26
2023-02-15T13:38:42.402Z,23.22
2023-02-15T13:48:51.182Z,23.23
2023-02-15T13:58:56.875Z,23.19
2023-02-15T14:09:02.718Z,23.17
2023-02-15T14:19:08.103Z,23.13
2023-02-15T14:29:13.888Z,23.15
2023-02-15T14:39:19.773Z,23.14
2023-02-15T14:49:25.259Z,23.09
2023-02-15T14:59:30.999Z,23.10
2023-02-15T15:09:36.639Z,23.09
2023-02-15T15:19:51.490Z,23.07
2023-02-15T15:29:52.217Z,23.08
2023-02-15T15:39:57.552Z,23.05
2023-02-15T15:50:02.986Z,23.04
2023-02-15T16:00:08.517Z,23.05
2023-02-15T16:10:14.238Z,23.03
2023-02-15T16:20:19.848Z,23.03
2023-02-15T16:30:25.223Z,23.01
2023-02-15T16:40:30.574Z,23.01
2023-02-15T16:50:36.014Z,22.99
2023-02-15T17:00:41.372Z,22.99
2023-02-15T17:10:47.009Z,22.96
2023-02-15T17:20:52.401Z,22.96
2023-02-15T17:30:58.108Z,22.95
2023-02-15T17:41:04.664Z,22.94
2023-02-15T17:51:11.252Z,22.91
2023-02-15T18:01:17.643Z,22.95
2023-02-15T18:11:23.233Z,22.93
2023-02-15T18:21:28.721Z,22.90
2023-02-15T18:31:34.156Z,22.95
2023-02-15T18:41:42.678Z,23.03
2023-02-15T18:51:48.326Z,23.04
2023-02-15T19:01:53.278Z,23.08
2023-02-15T19:11:59.666Z,23.14
2023-02-15T19:22:05.241Z,23.13
2023-02-15T19:32:11.756Z,23.19
2023-02-15T19:42:17.364Z,23.25
2023-02-15T19:52:22.745Z,23.29
2023-02-15T20:02:28.008Z,23.37
2023-02-15T20:12:33.506Z,23.40
2023-02-15T20:22:40.768Z,23.48
2023-02-15T20:32:46.794Z,23.43
2023-02-15T20:42:52.090Z,23.44
2023-02-15T20:52:57.651Z,23.45
2023-02-15T21:03:03.157Z,23.42
2023-02-15T21:13:09.284Z,23.46
2023-02-15T21:23:14.984Z,23.53
2023-02-15T21:33:20.225Z,23.54
2023-02-15T21:43:25.796Z,23.54
2023-02-15T21:53:32.312Z,23.57
2023-02-15T22:03:37.822Z,23.53
2023-02-15T22:13:43.683Z,23.55
2023-02-15T22:23:49.352Z,23.55
2023-02-15T22:33:54.856Z,23.57
2023-02-15T22:44:00.320Z,23.50
2023-02-15T22:54:06.175Z,23.54
2023-02-15T23:04:11.654Z,23.50
2023-02-15T23:14:16.986Z,23.56
2023-02-15T23:24:22.553Z,23.60
2023-02-15T23:34:27.823Z,23.53
2023-02-15T23:44:33.027Z,23.50
2023-02-15T23:54:38.143Z,23.48
